createdAt,value
2022-12-12T00:00:20.590Z,2.64
2022-12-12T00:03:13.011Z,3.21
2022-12-12T00:05:45.304Z,3.53
2022-12-12T00:08:17.750Z,3.40
2022-12-12T00:10:50.211Z,2.32
2022-12-12T00:13:22.408Z,1.18
2022-12-12T00:15:54.665Z,0.36
2022-12-12T00:18:27.494Z,-0.02
2022-12-12T00:20:59.936Z,0.81
2022-12-12T00:23:32.369Z,1.77
2022-12-12T00:26:07.344Z,2.48
2022-12-12T00:28:39.703Z,3.08
2022-12-12T00:31:12.046Z,3.53
2022-12-12T00:33:44.962Z,3.78
2022-12-12T00:36:18.983Z,3.59
2022-12-12T00:38:52.014Z,2.36
2022-12-12T00:41:24.821Z,1.13
2022-12-12T00:43:57.080Z,0.25
2022-12-12T00:46:29.410Z,-0.05
2022-12-12T00:49:02.421Z,1.07
2022-12-12T00:51:35.391Z,2.11
2022-12-12T00:54:07.756Z,2.85
2022-12-12T00:56:40.418Z,3.30
2022-12-12T00:59:12.824Z,3.43
2022-12-12T01:01:46.190Z,2.34
2022-12-12T01:04:18.556Z,1.20
2022-12-12T01:06:50.912Z,0.33
2022-12-12T01:09:23.035Z,-0.36
2022-12-12T01:11:55.543Z,-0.45
2022-12-12T01:14:28.318Z,0.93
2022-12-12T01:17:01.042Z,2.21
2022-12-12T01:19:33.538Z,2.91
2022-12-12T01:22:05.829Z,3.48
2022-12-12T01:24:38.236Z,3.88
2022-12-12T01:27:10.932Z,3.82
2022-12-12T01:29:43.253Z,2.71
2022-12-12T01:32:15.509Z,1.57
2022-12-12T01:34:47.791Z,0.65
2022-12-12T01:37:20.052Z,-0.02
2022-12-12T01:39:52.410Z,-0.55
2022-12-12T01:42:25.040Z,-0.57
2022-12-12T01:44:57.300Z,0.89
2022-12-12T01:47:29.579Z,2.27
2022-12-12T01:50:05.796Z,3.08
2022-12-12T01:52:43.145Z,3.56
2022-12-12T01:55:21.281Z,3.82
2022-12-12T01:57:56.154Z,3.66
2022-12-12T02:00:28.694Z,2.51
2022-12-12T02:03:01.258Z,1.36
2022-12-12T02:05:38.657Z,0.47
2022-12-12T02:08:13.071Z,-0.26
2022-12-12T02:10:46.933Z,-0.42
2022-12-12T02:13:23.971Z,0.75
2022-12-12T02:16:03.545Z,1.90
2022-12-12T02:18:46.248Z,2.80
2022-12-12T02:21:25.454Z,3.28
2022-12-12T02:24:27.825Z,3.66
2022-12-12T02:27:28.019Z,3.99
2022-12-12T02:30:21.354Z,3.62
2022-12-12T02:33:14.840Z,2.13
2022-12-12T02:36:00.876Z,0.82
2022-12-12T02:38:42.925Z,-0.05
2022-12-12T02:41:26.718Z,-0.35
2022-12-12T02:44:18.969Z,0.80
2022-12-12T02:46:58.003Z,2.05
2022-12-12T02:49:34.474Z,2.75
2022-12-12T02:52:08.308Z,3.25
2022-12-12T02:54:41.077Z,3.56
2022-12-12T02:57:18.586Z,3.59
2022-12-12T02:59:54.767Z,2.49
2022-12-12T03:02:47.660Z,1.32
2022-12-12T03:06:01.137Z,0.31
2022-12-12T03:08:48.837Z,-0.50
2022-12-12T03:11:33.323Z,-0.54
2022-12-12T03:14:14.682Z,0.74
2022-12-12T03:16:54.364Z,1.84
2022-12-12T03:19:30.680Z,2.53
2022-12-12T03:22:08.822Z,2.96
2022-12-12T03:24:47.860Z,3.29
2022-12-12T03:27:24.762Z,3.28
2022-12-12T03:30:01.948Z,2.22
2022-12-12T03:32:40.719Z,1.08
2022-12-12T03:35:16.823Z,0.18
2022-12-12T03:37:52.962Z,-0.46
2022-12-12T03:40:32.635Z,-0.59
2022-12-12T03:43:08.131Z,0.53
2022-12-12T03:45:47.813Z,1.72
2022-12-12T03:48:27.049Z,2.51
2022-12-12T03:51:05.766Z,3.05
2022-12-12T03:53:41.953Z,3.44
2022-12-12T03:56:22.666Z,3.65
2022-12-12T03:58:59.965Z,3.52
2022-12-12T04:01:37.720Z,2.36
2022-12-12T04:04:16.132Z,1.19
2022-12-12T04:06:56.400Z,0.32
2022-12-12T04:09:47.270Z,-0.33
2022-12-12T04:12:41.406Z,-0.49
2022-12-12T04:15:28.989Z,0.84
2022-12-12T04:18:10.047Z,2.04
2022-12-12T04:21:08.920Z,2.86
2022-12-12T04:23:52.942Z,3.44
2022-12-12T04:26:42.589Z,3.93
2022-12-12T04:29:30.874Z,3.80
2022-12-12T04:32:11.250Z,2.48
2022-12-12T04:34:49.614Z,1.32
2022-12-12T04:37:27.149Z,0.45
2022-12-12T04:40:02.205Z,-0.25
2022-12-12T04:42:38.704Z,-0.53
2022-12-12T04:45:16.540Z,0.39
2022-12-12T04:47:53.239Z,1.58
2022-12-12T04:50:28.740Z,2.63
2022-12-12T04:53:04.718Z,3.41
2022-12-12T04:55:41.247Z,3.80
2022-12-12T04:58:14.543Z,3.56
2022-12-12T05:00:53.348Z,2.38
2022-12-12T05:03:38.763Z,1.22
2022-12-12T05:06:14.264Z,0.33
2022-12-12T05:08:48.792Z,-0.33
2022-12-12T05:11:22.250Z,-0.55
2022-12-12T05:13:54.711Z,0.66
2022-12-12T05:16:33.717Z,2.04
2022-12-12T05:19:06.381Z,3.04
2022-12-12T05:21:38.672Z,3.85
2022-12-12T05:24:11.694Z,4.44
2022-12-12T05:26:44.027Z,4.53
2022-12-12T05:29:16.505Z,3.41
2022-12-12T05:31:49.186Z,2.20
2022-12-12T05:34:21.778Z,1.23
2022-12-12T05:36:55.217Z,0.50
2022-12-12T05:39:27.638Z,-0.08
2022-12-12T05:41:59.912Z,-0.58
2022-12-12T05:44:32.353Z,-0.73
2022-12-12T05:47:04.732Z,0.57
2022-12-12T05:49:37.224Z,1.94
2022-12-12T05:52:09.758Z,2.90
2022-12-12T05:54:41.959Z,3.54
2022-12-12T05:57:14.791Z,3.96
2022-12-12T05:59:47.372Z,4.00
2022-12-12T06:02:20.373Z,2.93
2022-12-12T06:04:53.318Z,1.73
2022-12-12T06:07:25.675Z,0.80
2022-12-12T06:09:58.004Z,0.12
2022-12-12T06:12:30.288Z,-0.42
2022-12-12T06:15:02.596Z,-0.57
2022-12-12T06:17:35.193Z,0.62
2022-12-12T06:20:09.120Z,1.93
2022-12-12T06:22:43.540Z,2.83
2022-12-12T06:25:16.164Z,3.36
2022-12-12T06:27:48.554Z,3.84
2022-12-12T06:30:21.200Z,4.07
2022-12-12T06:32:53.552Z,3.07
2022-12-12T06:35:27.754Z,1.93
2022-12-12T06:38:00.027Z,1.00
2022-12-12T06:40:32.129Z,0.29
2022-12-12T06:43:04.408Z,-0.23
2022-12-12T06:45:36.696Z,-0.29
2022-12-12T06:48:09.315Z,1.05
2022-12-12T06:50:43.702Z,2.41
2022-12-12T06:53:15.853Z,3.36
2022-12-12T06:55:48.088Z,3.93
2022-12-12T06:58:20.279Z,4.45
2022-12-12T07:00:56.231Z,4.53
2022-12-12T07:03:29.398Z,3.37
2022-12-12T07:06:01.795Z,2.22
2022-12-12T07:08:34.737Z,1.30
2022-12-12T07:11:09.652Z,0.60
2022-12-12T07:13:42.034Z,0.32
2022-12-12T07:16:15.137Z,1.39
2022-12-12T07:18:47.564Z,2.65
2022-12-12T07:21:21.186Z,3.50
2022-12-12T07:23:53.493Z,4.11
2022-12-12T07:26:26.306Z,4.59
2022-12-12T07:28:58.625Z,4.53
2022-12-12T07:31:30.950Z,3.41
2022-12-12T07:34:03.423Z,2.31
2022-12-12T07:36:35.540Z,1.47
2022-12-12T07:39:08.826Z,0.83
2022-12-12T07:41:41.207Z,0.31
2022-12-12T07:44:13.525Z,0.20
2022-12-12T07:46:46.041Z,1.22
2022-12-12T07:49:18.380Z,2.46
2022-12-12T07:51:51.203Z,3.46
2022-12-12T07:54:23.536Z,4.18
2022-12-12T07:56:55.894Z,4.38
2022-12-12T07:59:28.218Z,3.39
2022-12-12T08:02:00.579Z,2.30
2022-12-12T08:04:33.050Z,1.47
2022-12-12T08:07:08.750Z,0.89
2022-12-12T08:09:41.435Z,0.43
2022-12-12T08:12:13.720Z,0.32
2022-12-12T08:14:46.197Z,1.47
2022-12-12T08:17:19.437Z,2.74
2022-12-12T08:19:53.516Z,3.55
2022-12-12T08:22:25.821Z,4.18
2022-12-12T08:24:58.078Z,4.46
2022-12-12T08:27:30.566Z,3.57
2022-12-12T08:30:03.651Z,2.56
2022-12-12T08:32:35.845Z,1.84
2022-12-12T08:35:11.091Z,1.35
2022-12-12T08:37:43.548Z,0.96
2022-12-12T08:40:16.500Z,1.02
2022-12-12T08:42:48.719Z,2.30
2022-12-12T08:45:20.976Z,3.53
2022-12-12T08:47:53.210Z,4.51
2022-12-12T08:50:29.513Z,5.14
2022-12-12T08:53:02.120Z,5.22
2022-12-12T08:55:34.733Z,4.32
2022-12-12T08:58:07.258Z,3.35
2022-12-12T09:00:39.927Z,2.52
2022-12-12T09:03:12.338Z,1.84
2022-12-12T09:05:47.546Z,1.35
2022-12-12T09:08:19.891Z,1.01
2022-12-12T09:10:53.439Z,1.03
2022-12-12T09:13:25.717Z,2.21
2022-12-12T09:16:00.073Z,3.38
2022-12-12T09:18:32.475Z,4.23
2022-12-12T09:21:05.414Z,4.53
2022-12-12T09:23:38.206Z,3.64
2022-12-12T09:26:11.759Z,2.64
2022-12-12T09:28:44.174Z,1.89
2022-12-12T09:31:16.718Z,1.38
2022-12-12T09:33:49.106Z,1.02
2022-12-12T09:36:21.860Z,0.76
2022-12-12T09:38:54.210Z,0.78
2022-12-12T09:41:28.139Z,1.84
2022-12-12T09:44:04.561Z,2.85
2022-12-12T09:46:41.574Z,3.43
2022-12-12T09:49:18.813Z,4.19
2022-12-12T09:51:52.705Z,4.63
2022-12-12T09:57:26.326Z,3.21
2022-12-12T10:00:08.702Z,2.63
2022-12-12T10:02:57.168Z,2.25
2022-12-12T10:05:38.204Z,1.96
2022-12-12T10:08:20.959Z,1.86
2022-12-12T10:10:57.242Z,1.90
2022-12-12T10:13:31.376Z,2.56
2022-12-12T10:16:09.090Z,4.47
2022-12-12T10:18:44.031Z,6.16
2022-12-12T10:21:22.769Z,6.72
2022-12-12T10:24:03.778Z,5.80
2022-12-12T10:26:36.104Z,4.76
2022-12-12T10:29:16.135Z,4.03
2022-12-12T10:31:56.275Z,3.46
2022-12-12T10:34:41.906Z,2.94
2022-12-12T10:37:26.593Z,2.51
2022-12-12T10:40:08.600Z,2.16
2022-12-12T10:42:48.199Z,1.88
2022-12-12T10:45:35.265Z,2.10
2022-12-12T10:48:08.166Z,3.79
2022-12-12T10:50:45.650Z,5.17
2022-12-12T10:53:18.112Z,5.78
2022-12-12T10:55:56.322Z,4.92
2022-12-12T10:58:37.759Z,3.92
2022-12-12T11:01:24.962Z,3.13
2022-12-12T11:04:07.345Z,2.48
2022-12-12T11:06:46.415Z,2.06
2022-12-12T11:09:22.720Z,1.68
2022-12-12T11:12:03.749Z,1.34
2022-12-12T11:14:39.460Z,1.43
2022-12-12T11:17:25.236Z,2.98
2022-12-12T11:20:00.982Z,4.40
2022-12-12T11:22:35.093Z,5.23
2022-12-12T11:25:08.556Z,5.79
2022-12-12T11:27:42.872Z,5.03
2022-12-12T11:30:29.734Z,4.00
2022-12-12T11:33:02.735Z,3.21
2022-12-12T11:35:45.641Z,2.68
2022-12-12T11:38:22.759Z,2.26
2022-12-12T11:41:02.697Z,1.96
2022-12-12T11:43:37.208Z,1.75
2022-12-12T11:46:18.571Z,1.61
2022-12-12T11:49:00.445Z,1.47
2022-12-12T11:51:39.625Z,1.35
2022-12-12T11:54:15.501Z,1.64
2022-12-12T11:56:57.747Z,3.47
2022-12-12T11:59:54.898Z,5.18
2022-12-12T12:02:52.493Z,6.40
2022-12-12T12:05:34.599Z,6.69
2022-12-12T12:08:19.813Z,5.44
2022-12-12T12:11:06.231Z,4.37
2022-12-12T12:13:53.558Z,3.60
2022-12-12T12:16:36.304Z,3.01
2022-12-12T12:19:16.870Z,2.60
2022-12-12T12:22:02.421Z,2.40
2022-12-12T12:25:02.245Z,2.28
2022-12-12T12:27:43.749Z,2.16
2022-12-12T12:30:22.939Z,2.10
2022-12-12T12:33:11.520Z,2.02
2022-12-12T12:35:57.675Z,2.37
2022-12-12T12:38:46.670Z,4.14
2022-12-12T12:41:36.999Z,5.29
2022-12-12T12:44:25.717Z,6.02
2022-12-12T12:47:08.358Z,6.46
2022-12-12T12:49:47.022Z,5.47
2022-12-12T12:52:22.255Z,4.38
2022-12-12T12:54:59.265Z,3.56
2022-12-12T12:57:35.961Z,2.93
2022-12-12T13:00:17.043Z,2.42
2022-12-12T13:02:57.276Z,1.97
2022-12-12T13:05:36.673Z,1.98
2022-12-12T13:08:22.262Z,3.57
2022-12-12T13:10:56.639Z,5.27
2022-12-12T13:13:32.016Z,6.25
2022-12-12T13:16:07.755Z,6.60
2022-12-12T13:18:45.956Z,5.61
2022-12-12T13:21:21.262Z,4.43
2022-12-12T13:24:01.863Z,3.60
2022-12-12T13:26:41.663Z,2.99
2022-12-12T13:29:34.197Z,2.47
2022-12-12T13:32:30.439Z,1.97
2022-12-12T13:35:09.142Z,1.54
2022-12-12T13:37:49.577Z,1.55
2022-12-12T13:40:32.585Z,3.05
2022-12-12T13:43:09.987Z,4.47
2022-12-12T13:45:45.587Z,5.36
2022-12-12T13:48:50.885Z,5.91
2022-12-12T13:51:36.955Z,5.97
2022-12-12T13:54:44.196Z,4.76
2022-12-12T13:57:23.751Z,3.48
2022-12-12T14:00:26.148Z,2.67
2022-12-12T14:03:22.461Z,1.94
2022-12-12T14:05:56.010Z,1.40
2022-12-12T14:08:32.958Z,1.29
2022-12-12T14:11:11.935Z,2.56
2022-12-12T14:13:50.840Z,3.88
2022-12-12T14:16:28.776Z,4.69
2022-12-12T14:19:08.803Z,5.22
2022-12-12T14:21:44.823Z,5.55
2022-12-12T14:24:56.904Z,5.50
2022-12-12T14:28:14.845Z,4.03
2022-12-12T14:30:55.672Z,2.62
2022-12-12T14:33:59.184Z,1.76
2022-12-12T14:37:14.991Z,1.04
2022-12-12T14:40:00.772Z,1.00
2022-12-12T14:43:21.415Z,2.39
2022-12-12T14:45:54.020Z,3.34
2022-12-12T14:48:29.557Z,3.76
2022-12-12T14:51:06.756Z,4.23
2022-12-12T14:53:48.307Z,4.96
2022-12-12T14:56:23.005Z,5.45
2022-12-12T14:59:04.025Z,5.76
2022-12-12T15:01:39.703Z,5.59
2022-12-12T15:04:15.492Z,4.35
2022-12-12T15:06:50.896Z,3.11
2022-12-12T15:09:31.738Z,2.14
2022-12-12T15:12:17.813Z,1.39
2022-12-12T15:14:58.216Z,1.09
2022-12-12T15:17:33.435Z,2.18
2022-12-12T15:20:08.441Z,3.32
2022-12-12T15:22:50.052Z,4.15
2022-12-12T15:25:23.919Z,4.81
2022-12-12T15:27:57.332Z,5.30
2022-12-12T15:30:34.560Z,5.54
2022-12-12T15:33:08.942Z,5.34
2022-12-12T15:35:41.097Z,4.15
2022-12-12T15:38:15.443Z,2.99
2022-12-12T15:40:51.609Z,2.11
2022-12-12T15:43:27.070Z,1.42
2022-12-12T15:46:14.340Z,1.18
2022-12-12T15:48:47.739Z,2.37
2022-12-12T15:51:25.116Z,3.56
2022-12-12T15:53:58.678Z,4.37
2022-12-12T15:56:31.383Z,4.87
2022-12-12T15:59:18.416Z,5.21
2022-12-12T16:01:50.727Z,5.45
2022-12-12T16:04:27.229Z,5.50
2022-12-12T16:07:22.325Z,4.41
2022-12-12T16:10:19.261Z,3.08
2022-12-12T16:13:22.225Z,2.08
2022-12-12T16:15:54.735Z,1.37
2022-12-12T16:18:27.935Z,1.18
2022-12-12T16:21:02.258Z,2.30
2022-12-12T16:23:41.738Z,3.77
2022-12-12T16:26:13.937Z,4.88
2022-12-12T16:28:46.407Z,5.63
2022-12-12T16:31:20.058Z,6.12
2022-12-12T16:33:54.329Z,6.20
2022-12-12T16:36:26.485Z,5.01
2022-12-12T16:38:58.672Z,3.78
2022-12-12T16:41:30.994Z,2.85
2022-12-12T16:44:03.247Z,2.10
2022-12-12T16:46:35.391Z,1.47
2022-12-12T16:49:15.064Z,1.30
2022-12-12T16:51:47.535Z,2.71
2022-12-12T16:54:20.890Z,4.00
2022-12-12T16:56:54.135Z,4.82
2022-12-12T16:59:26.390Z,5.43
2022-12-12T17:01:58.600Z,5.89
2022-12-12T17:04:31.570Z,5.86
2022-12-12T17:07:08.049Z,4.69
2022-12-12T17:09:40.231Z,3.41
2022-12-12T17:12:13.347Z,2.50
2022-12-12T17:14:45.657Z,1.79
2022-12-12T17:17:17.844Z,1.43
2022-12-12T17:19:50.812Z,2.32
2022-12-12T17:22:23.216Z,3.48
2022-12-12T17:24:55.387Z,4.21
2022-12-12T17:27:27.587Z,4.69
2022-12-12T17:29:59.725Z,5.10
2022-12-12T17:32:34.966Z,5.44
2022-12-12T17:35:10.378Z,5.65
2022-12-12T17:37:42.527Z,5.53
2022-12-12T17:40:15.708Z,4.41
2022-12-12T17:42:48.068Z,3.27
2022-12-12T17:45:20.934Z,2.38
2022-12-12T17:47:53.367Z,1.68
2022-12-12T17:50:25.668Z,1.39
2022-12-12T17:52:57.803Z,2.45
2022-12-12T17:55:54.486Z,3.62
2022-12-12T17:58:26.470Z,4.46
2022-12-12T18:01:02.119Z,4.95
2022-12-12T18:03:35.412Z,5.32
2022-12-12T18:06:09.125Z,5.64
2022-12-12T18:08:42.359Z,5.58
2022-12-12T18:11:17.137Z,4.49
2022-12-12T18:13:49.709Z,3.25
2022-12-12T18:16:23.761Z,2.28
2022-12-12T18:18:57.343Z,1.53
2022-12-12T18:24:25.842Z,2.33
2022-12-12T18:27:01.159Z,3.37
2022-12-12T18:29:33.705Z,3.99
2022-12-12T18:32:06.251Z,4.34
2022-12-12T18:34:38.662Z,4.75
2022-12-12T18:37:13.417Z,5.24
2022-12-12T18:39:46.137Z,5.65
2022-12-12T18:42:18.383Z,5.99
2022-12-12T18:44:50.657Z,5.56
2022-12-12T18:47:22.885Z,4.19
2022-12-12T18:49:55.078Z,2.95
2022-12-12T18:52:27.438Z,1.98
2022-12-12T18:54:59.608Z,1.46
2022-12-12T18:57:31.777Z,2.27
2022-12-12T19:00:05.739Z,3.18
2022-12-12T19:02:40.587Z,3.58
2022-12-12T19:05:13.620Z,4.02
2022-12-12T19:07:47.058Z,4.26
2022-12-12T19:10:19.468Z,4.53
2022-12-12T19:12:51.872Z,4.78
2022-12-12T19:15:24.140Z,4.85
2022-12-12T19:17:57.099Z,5.13
2022-12-12T19:20:29.650Z,5.37
2022-12-12T19:23:01.813Z,5.16
2022-12-12T19:25:42.531Z,4.00
2022-12-12T19:28:15.352Z,2.74
2022-12-12T19:30:48.321Z,1.80
2022-12-12T19:33:20.730Z,1.46
2022-12-12T19:35:53.198Z,2.53
2022-12-12T19:38:25.360Z,3.23
2022-12-12T19:40:57.575Z,3.69
2022-12-12T19:43:31.650Z,3.94
2022-12-12T19:46:12.415Z,4.20
2022-12-12T19:48:45.467Z,4.22
2022-12-12T19:51:19.819Z,4.30
2022-12-12T19:53:54.433Z,4.42
2022-12-12T19:56:28.758Z,4.42
2022-12-12T19:59:02.400Z,4.43
2022-12-12T20:01:37.129Z,4.63
2022-12-12T20:04:16.022Z,4.91
2022-12-12T20:06:49.859Z,5.03
2022-12-12T20:09:24.426Z,5.13
2022-12-12T20:11:58.105Z,5.25
2022-12-12T20:14:32.479Z,5.10
2022-12-12T20:17:04.898Z,3.90
2022-12-12T20:19:37.550Z,2.70
2022-12-12T20:22:10.033Z,1.74
2022-12-12T20:24:44.668Z,1.39
2022-12-12T20:27:16.905Z,2.53
2022-12-12T20:29:49.103Z,3.62
2022-12-12T20:32:23.405Z,4.25
2022-12-12T20:34:55.756Z,4.49
2022-12-12T20:37:30.149Z,4.67
2022-12-12T20:40:02.895Z,4.79
2022-12-12T20:42:35.041Z,4.94
2022-12-12T20:45:08.224Z,5.08
2022-12-12T20:47:40.406Z,5.14
2022-12-12T20:50:13.965Z,5.20
2022-12-12T20:52:46.147Z,5.30
2022-12-12T20:55:18.406Z,5.40
2022-12-12T20:57:51.133Z,5.45
2022-12-12T21:00:26.670Z,5.35
2022-12-12T21:02:59.145Z,4.34
2022-12-12T21:05:31.669Z,3.11
2022-12-12T21:08:04.028Z,2.15
2022-12-12T21:10:36.259Z,1.76
2022-12-12T21:13:08.343Z,2.69
2022-12-12T21:15:41.060Z,3.62
2022-12-12T21:18:13.227Z,4.10
2022-12-12T21:20:47.901Z,4.26
2022-12-12T21:23:21.230Z,4.39
2022-12-12T21:25:53.481Z,4.57
2022-12-12T21:28:25.870Z,4.67
2022-12-12T21:30:58.097Z,4.71
2022-12-12T21:33:30.344Z,4.80
2022-12-12T21:36:07.512Z,4.83
2022-12-12T21:38:40.782Z,4.69
2022-12-12T21:41:15.288Z,4.58
2022-12-12T21:43:47.717Z,4.51
2022-12-12T21:46:21.869Z,4.57
2022-12-12T21:49:09.147Z,4.54
2022-12-12T21:51:42.079Z,4.68
2022-12-12T21:54:15.830Z,4.67
2022-12-12T21:56:50.720Z,4.60
2022-12-12T21:59:23.423Z,4.62
2022-12-12T22:01:57.025Z,5.07
2022-12-12T22:04:29.495Z,5.49
2022-12-12T22:07:01.882Z,5.67
2022-12-12T22:09:34.821Z,5.83
2022-12-12T22:12:07.280Z,5.80
2022-12-12T22:14:39.372Z,5.23
2022-12-12T22:17:11.928Z,3.92
2022-12-12T22:19:44.161Z,2.72
2022-12-12T22:22:16.609Z,2.29
2022-12-12T22:24:48.769Z,3.36
2022-12-12T22:27:20.927Z,4.41
2022-12-12T22:29:53.128Z,5.10
2022-12-12T22:32:25.243Z,5.49
2022-12-12T22:34:58.640Z,5.81
2022-12-12T22:37:30.774Z,6.00
2022-12-12T22:40:03.099Z,6.16
2022-12-12T22:42:35.179Z,6.35
2022-12-12T22:45:08.448Z,6.17
2022-12-12T22:47:40.622Z,4.77
2022-12-12T22:50:14.005Z,3.36
2022-12-12T22:52:46.696Z,2.30
2022-12-12T22:55:19.012Z,1.95
2022-12-12T22:57:51.148Z,3.14
2022-12-12T23:00:23.598Z,4.20
2022-12-12T23:02:56.422Z,5.02
2022-12-12T23:05:28.937Z,5.50
2022-12-12T23:08:01.306Z,5.74
2022-12-12T23:10:33.638Z,5.88
2022-12-12T23:13:05.834Z,5.95
2022-12-12T23:15:42.538Z,5.73
2022-12-12T23:18:15.722Z,4.49
2022-12-12T23:20:49.347Z,3.25
2022-12-12T23:23:21.799Z,2.26
2022-12-12T23:25:54.095Z,1.98
2022-12-12T23:28:26.505Z,3.15
2022-12-12T23:30:58.747Z,4.43
2022-12-12T23:33:31.015Z,5.22
2022-12-12T23:36:03.324Z,5.70
2022-12-12T23:38:35.602Z,5.96
2022-12-12T23:41:09.482Z,6.17
2022-12-12T23:43:42.169Z,6.28
2022-12-12T23:46:28.589Z,6.20
2022-12-12T23:49:02.569Z,4.75
2022-12-12T23:51:38.488Z,3.39
2022-12-12T23:54:13.547Z,2.38
2022-12-12T23:56:46.375Z,2.11
2022-12-12T23:59:19.880Z,3.28
